createdAt,value
2023-03-05T00:01:26.503Z,-0.02
2023-03-05T00:03:55.584Z,-0.10
2023-03-05T00:06:25.469Z,-0.17
2023-03-05T00:08:53.443Z,-0.22
2023-03-05T00:11:21.016Z,-0.24
2023-03-05T00:13:47.626Z,-0.08
2023-03-05T00:16:17.326Z,-0.06
2023-03-05T00:18:44.826Z,-0.16
2023-03-05T00:21:26.464Z,-0.18
2023-03-05T00:23:53.843Z,-0.19
2023-03-05T00:26:22.715Z,-0.17
2023-03-05T00:28:51.870Z,-0.20
2023-03-05T00:31:21.108Z,-0.15
2023-03-05T00:33:55.815Z,-0.09
2023-03-05T00:36:24.397Z,-0.05
2023-03-05T00:38:51.012Z,-0.05
2023-03-05T00:41:17.578Z,-0.09
2023-03-05T00:43:44.125Z,-0.10
2023-03-05T00:46:11.730Z,-0.12
2023-03-05T00:48:38.387Z,-0.10
2023-03-05T00:51:05.227Z,-0.10
2023-03-05T00:53:32.209Z,-0.15
2023-03-05T00:55:59.250Z,-0.19
2023-03-05T00:58:25.983Z,-0.15
2023-03-05T01:00:52.564Z,-0.10
2023-03-05T01:03:19.486Z,-0.16
2023-03-05T01:05:46.211Z,-0.11
2023-03-05T01:08:12.808Z,-0.09
2023-03-05T01:10:39.341Z,-0.10
2023-03-05T01:13:05.948Z,-0.15
2023-03-05T01:15:32.497Z,-0.09
2023-03-05T01:17:59.041Z,-0.06
2023-03-05T01:20:25.590Z,-0.04
2023-03-05T01:22:52.868Z,-0.03
2023-03-05T01:25:19.875Z,-0.10
2023-03-05T01:27:46.408Z,-0.20
2023-03-05T01:30:14.548Z,-0.16
2023-03-05T01:32:41.313Z,-0.07
2023-03-05T01:35:08.768Z,-0.16
2023-03-05T01:37:35.294Z,-0.31
2023-03-05T01:40:01.931Z,-0.38
2023-03-05T01:42:28.498Z,-0.37
2023-03-05T01:45:10.141Z,-0.25
2023-03-05T01:47:37.145Z,-0.29
2023-03-05T01:50:07.495Z,-0.38
2023-03-05T01:52:39.351Z,-0.50
2023-03-05T01:55:11.837Z,-0.56
2023-03-05T01:57:45.748Z,-0.53
2023-03-05T02:00:46.749Z,-0.50
2023-03-05T02:03:14.629Z,-0.45
2023-03-05T02:05:44.415Z,-0.45
2023-03-05T02:08:20.913Z,-0.41
2023-03-05T02:10:56.358Z,-0.51
2023-03-05T02:13:25.801Z,-0.47
2023-03-05T02:15:54.572Z,-0.40
2023-03-05T02:18:21.953Z,-0.33
2023-03-05T02:20:52.068Z,-0.31
2023-03-05T02:23:21.152Z,-0.25
2023-03-05T02:25:47.924Z,-0.19
2023-03-05T02:28:26.181Z,-0.12
2023-03-05T02:30:52.760Z,-0.12
2023-03-05T02:33:20.549Z,-0.08
2023-03-05T02:35:48.285Z,-0.07
2023-03-05T02:38:18.078Z,-0.09
2023-03-05T02:40:44.702Z,-0.12
2023-03-05T02:43:12.971Z,-0.13
2023-03-05T02:45:39.977Z,-0.10
2023-03-05T02:48:06.846Z,-0.01
2023-03-05T02:50:34.292Z,-0.03
2023-03-05T02:53:01.097Z,-0.08
2023-03-05T02:55:28.496Z,-0.11
2023-03-05T02:57:55.156Z,-0.16
2023-03-05T03:00:22.572Z,-0.18
2023-03-05T03:02:49.892Z,-0.21
2023-03-05T03:05:16.457Z,-0.26
2023-03-05T03:07:43.023Z,-0.35
2023-03-05T03:10:10.728Z,-0.38
2023-03-05T03:12:41.725Z,-0.33
2023-03-05T03:15:09.945Z,-0.31
2023-03-05T03:17:37.247Z,-0.30
2023-03-05T03:20:09.083Z,-0.26
2023-03-05T03:22:35.589Z,-0.25
2023-03-05T03:25:03.222Z,-0.18
2023-03-05T03:27:29.773Z,-0.21
2023-03-05T03:29:56.331Z,-0.22
2023-03-05T03:32:22.916Z,-0.21
2023-03-05T03:34:49.663Z,-0.18
2023-03-05T03:37:16.612Z,-0.17
2023-03-05T03:39:43.149Z,-0.14
2023-03-05T03:42:09.653Z,-0.23
2023-03-05T03:44:36.190Z,-0.29
2023-03-05T03:47:02.940Z,-0.35
2023-03-05T03:49:29.583Z,-0.33
2023-03-05T03:51:56.119Z,-0.26
2023-03-05T03:54:22.985Z,-0.17
2023-03-05T03:56:49.750Z,-0.10
2023-03-05T03:59:16.491Z,-0.13
2023-03-05T04:01:43.304Z,-0.15
2023-03-05T04:04:12.460Z,0.00
2023-03-05T04:06:39.450Z,-0.05
2023-03-05T04:09:08.091Z,-0.13
2023-03-05T04:11:35.601Z,-0.16
2023-03-05T04:14:02.682Z,-0.15
2023-03-05T04:16:29.458Z,-0.05
2023-03-05T04:18:56.040Z,0.02
2023-03-05T04:21:22.636Z,-0.02
2023-03-05T04:23:49.181Z,-0.09
2023-03-05T04:26:15.720Z,-0.12
2023-03-05T04:28:42.275Z,-0.08
2023-03-05T04:31:08.952Z,-0.11
2023-03-05T04:33:35.515Z,-0.13
2023-03-05T04:36:02.116Z,-0.16
2023-03-05T04:38:28.708Z,-0.03
2023-03-05T04:40:55.268Z,0.04
2023-03-05T04:43:22.248Z,0.05
2023-03-05T04:45:48.746Z,0.09
2023-03-05T04:48:15.459Z,0.03
2023-03-05T04:50:42.004Z,0.02
2023-03-05T04:53:08.602Z,-0.01
2023-03-05T04:55:35.113Z,0.07
2023-03-05T04:58:01.682Z,0.03
2023-03-05T05:00:28.193Z,0.05
2023-03-05T05:02:55.025Z,0.12
2023-03-05T05:05:26.181Z,0.17
2023-03-05T05:07:57.395Z,0.06
2023-03-05T05:10:25.906Z,0.06
2023-03-05T05:12:52.515Z,0.14
2023-03-05T05:15:19.185Z,0.13
2023-03-05T05:17:47.996Z,0.15
2023-03-05T05:20:16.454Z,0.16
2023-03-05T05:22:43.469Z,0.15
2023-03-05T05:25:10.961Z,0.16
2023-03-05T05:27:38.974Z,0.21
2023-03-05T05:30:06.799Z,0.10
2023-03-05T05:32:33.585Z,0.14
2023-03-05T05:35:00.464Z,0.20
2023-03-05T05:37:27.653Z,0.18
2023-03-05T05:39:54.250Z,0.15
2023-03-05T05:42:23.036Z,0.16
2023-03-05T05:44:49.921Z,0.20
2023-03-05T05:47:17.595Z,0.17
2023-03-05T05:49:44.141Z,0.11
2023-03-05T05:52:10.665Z,0.14
2023-03-05T05:54:37.348Z,0.17
2023-03-05T05:57:03.985Z,0.24
2023-03-05T05:59:30.558Z,0.27
2023-03-05T06:01:57.381Z,0.22
2023-03-05T06:04:23.946Z,0.26
2023-03-05T06:06:50.949Z,0.37
2023-03-05T06:09:17.854Z,0.32
2023-03-05T06:11:46.574Z,0.27
2023-03-05T06:14:13.690Z,0.24
2023-03-05T06:16:40.792Z,0.30
2023-03-05T06:19:11.394Z,0.29
2023-03-05T06:21:38.105Z,0.30
2023-03-05T06:24:05.255Z,0.21
2023-03-05T06:26:33.834Z,0.23
2023-03-05T06:29:00.515Z,0.30
2023-03-05T06:31:28.903Z,0.31
2023-03-05T06:33:57.790Z,0.33
2023-03-05T06:36:25.512Z,0.41
2023-03-05T06:38:53.563Z,0.48
2023-03-05T06:41:29.012Z,0.43
2023-03-05T06:43:56.395Z,0.40
2023-03-05T06:46:31.468Z,0.32
2023-03-05T06:49:00.687Z,0.43
2023-03-05T06:51:33.106Z,0.53
2023-03-05T06:54:05.408Z,0.44
2023-03-05T06:56:31.909Z,0.42
2023-03-05T06:58:59.216Z,0.52
2023-03-05T07:01:25.900Z,0.52
2023-03-05T07:03:54.213Z,0.52
2023-03-05T07:06:21.814Z,0.66
2023-03-05T07:08:49.118Z,0.79
2023-03-05T07:11:18.367Z,0.89
2023-03-05T07:13:47.716Z,0.96
2023-03-05T07:16:17.107Z,1.00
2023-03-05T07:18:44.118Z,1.04
2023-03-05T07:21:16.142Z,0.96
2023-03-05T07:23:42.842Z,1.00
2023-03-05T07:26:11.175Z,1.07
2023-03-05T07:28:37.763Z,1.11
2023-03-05T07:31:11.870Z,1.18
2023-03-05T07:33:38.509Z,1.20
2023-03-05T07:36:08.350Z,1.15
2023-03-05T07:38:35.086Z,1.18
2023-03-05T07:41:07.248Z,1.12
2023-03-05T07:43:33.777Z,1.16
2023-03-05T07:46:03.439Z,1.17
2023-03-05T07:48:30.029Z,1.20
2023-03-05T07:51:09.950Z,1.33
2023-03-05T07:53:36.753Z,1.34
2023-03-05T07:56:03.443Z,1.41
2023-03-05T07:58:30.018Z,1.43
2023-03-05T08:00:56.528Z,1.48
2023-03-05T08:03:23.098Z,1.56
2023-03-05T08:05:49.672Z,1.61
2023-03-05T08:08:16.528Z,1.66
2023-03-05T08:10:43.049Z,1.70
2023-03-05T08:13:09.660Z,1.67
2023-03-05T08:15:37.678Z,1.72
2023-03-05T08:18:04.578Z,1.62
2023-03-05T08:20:31.267Z,1.71
2023-03-05T08:22:57.776Z,1.79
2023-03-05T08:25:24.372Z,1.82
2023-03-05T08:27:50.918Z,1.91
2023-03-05T08:30:20.248Z,1.81
2023-03-05T08:32:49.037Z,1.92
2023-03-05T08:35:15.602Z,1.92
2023-03-05T08:37:42.151Z,1.92
2023-03-05T08:40:10.204Z,2.02
2023-03-05T08:42:36.710Z,2.05
2023-03-05T08:45:03.329Z,2.15
2023-03-05T08:47:30.023Z,2.20
2023-03-05T08:49:57.655Z,2.24
2023-03-05T08:52:24.845Z,2.32
2023-03-05T08:54:51.502Z,2.24
2023-03-05T08:57:18.200Z,2.30
2023-03-05T08:59:44.742Z,2.37
2023-03-05T09:02:13.320Z,2.44
2023-03-05T09:04:40.475Z,2.49
2023-03-05T09:07:07.053Z,2.57
2023-03-05T09:09:34.054Z,2.64
2023-03-05T09:12:01.702Z,2.70
2023-03-05T09:14:28.784Z,2.80
2023-03-05T09:16:56.824Z,2.89
2023-03-05T09:19:24.303Z,2.95
2023-03-05T09:21:51.314Z,2.79
2023-03-05T09:24:17.888Z,2.84
2023-03-05T09:26:44.409Z,2.77
2023-03-05T09:29:11.137Z,2.83
2023-03-05T09:31:38.497Z,2.88
2023-03-05T09:34:05.749Z,3.02
2023-03-05T09:36:32.821Z,3.02
2023-03-05T09:38:59.415Z,3.10
2023-03-05T09:41:40.762Z,3.09
2023-03-05T09:44:22.262Z,3.16
2023-03-05T09:47:36.575Z,3.20
2023-03-05T09:50:31.798Z,3.39
2023-03-05T09:53:22.926Z,3.41
2023-03-05T09:55:58.741Z,3.54
2023-03-05T09:58:35.412Z,3.67
2023-03-05T10:01:06.390Z,3.63
2023-03-05T10:03:45.711Z,3.43
2023-03-05T10:06:23.192Z,3.39
2023-03-05T10:08:55.266Z,3.25
2023-03-05T10:11:53.748Z,3.48
2023-03-05T10:14:33.208Z,3.46
2023-03-05T10:17:21.548Z,3.55
2023-03-05T10:19:56.962Z,3.69
2023-03-05T10:22:28.882Z,3.72
2023-03-05T10:25:23.646Z,3.89
2023-03-05T10:27:56.873Z,3.77
2023-03-05T10:30:40.534Z,3.55
2023-03-05T10:33:38.256Z,3.51
2023-03-05T10:36:17.029Z,3.63
2023-03-05T10:39:18.322Z,3.70
2023-03-05T10:41:56.463Z,3.66
2023-03-05T10:44:37.533Z,3.79
2023-03-05T10:47:21.578Z,4.07
2023-03-05T10:49:56.723Z,4.33
2023-03-05T10:52:31.047Z,4.28
2023-03-05T10:54:57.897Z,4.35
2023-03-05T10:57:27.713Z,4.47
2023-03-05T11:00:01.097Z,4.32
2023-03-05T11:02:31.609Z,4.19
2023-03-05T11:04:58.611Z,4.27
2023-03-05T11:07:25.238Z,4.19
2023-03-05T11:10:01.968Z,4.26
2023-03-05T11:12:36.577Z,4.18
2023-03-05T11:15:09.389Z,4.28
2023-03-05T11:17:44.771Z,4.40
2023-03-05T11:20:27.613Z,4.66
2023-03-05T11:23:06.615Z,4.76
2023-03-05T11:25:35.029Z,4.83
2023-03-05T11:28:03.079Z,4.80
2023-03-05T11:30:35.458Z,4.57
2023-03-05T11:33:22.618Z,4.45
2023-03-05T11:36:09.473Z,4.54
2023-03-05T11:38:50.033Z,4.71
2023-03-05T11:41:20.583Z,4.80
2023-03-05T11:43:49.528Z,4.94
2023-03-05T11:46:18.980Z,4.67
2023-03-05T11:48:46.924Z,4.61
2023-03-05T11:51:20.664Z,4.62
2023-03-05T11:53:52.268Z,4.37
2023-03-05T11:56:24.444Z,4.57
2023-03-05T11:59:12.899Z,4.57
2023-03-05T12:01:50.231Z,4.62
2023-03-05T12:04:18.495Z,4.85
2023-03-05T12:06:55.778Z,5.13
2023-03-05T12:09:44.340Z,4.92
2023-03-05T12:13:01.788Z,4.96
2023-03-05T12:15:37.073Z,4.98
2023-03-05T12:18:09.815Z,4.97
2023-03-05T12:21:03.951Z,4.93
2023-03-05T12:23:45.461Z,4.89
2023-03-05T12:26:12.182Z,4.80
2023-03-05T12:28:42.060Z,4.74
2023-03-05T12:31:08.830Z,4.82
2023-03-05T12:33:39.630Z,4.90
2023-03-05T12:36:21.645Z,4.68
2023-03-05T12:38:56.203Z,4.63
2023-03-05T12:41:22.865Z,4.70
2023-03-05T12:44:05.076Z,4.71
2023-03-05T12:46:42.888Z,4.58
2023-03-05T12:49:19.049Z,4.52
2023-03-05T12:51:48.438Z,4.46
2023-03-05T12:54:27.298Z,4.44
2023-03-05T12:56:57.081Z,4.37
2023-03-05T12:59:30.318Z,4.45
2023-03-05T13:02:01.244Z,4.40
2023-03-05T13:04:31.977Z,4.31
2023-03-05T13:07:06.016Z,4.46
2023-03-05T13:09:36.502Z,4.56
2023-03-05T13:12:11.605Z,4.61
2023-03-05T13:14:48.798Z,4.75
2023-03-05T13:17:28.813Z,4.83
2023-03-05T13:19:56.303Z,4.74
2023-03-05T13:22:24.675Z,4.61
2023-03-05T13:25:05.348Z,4.65
2023-03-05T13:27:33.049Z,4.62
2023-03-05T13:29:59.883Z,4.59
2023-03-05T13:32:28.881Z,4.55
2023-03-05T13:34:58.664Z,4.62
2023-03-05T13:37:34.625Z,4.70
2023-03-05T13:40:07.916Z,4.76
2023-03-05T13:42:39.124Z,4.86
2023-03-05T13:45:21.212Z,4.83
2023-03-05T13:48:03.040Z,4.92
2023-03-05T13:50:34.578Z,4.92
2023-03-05T13:53:37.310Z,4.82
2023-03-05T13:56:07.271Z,4.75
2023-03-05T13:58:48.183Z,4.61
2023-03-05T14:01:15.882Z,4.60
2023-03-05T14:03:42.921Z,4.54
2023-03-05T14:06:18.992Z,4.58
2023-03-05T14:08:51.662Z,4.42
2023-03-05T14:11:19.541Z,4.50
2023-03-05T14:13:48.335Z,4.56
2023-03-05T14:16:33.235Z,4.42
2023-03-05T14:19:02.628Z,4.36
2023-03-05T14:21:50.286Z,4.48
2023-03-05T14:24:23.565Z,4.52
2023-03-05T14:26:53.767Z,4.29
2023-03-05T14:29:24.283Z,4.22
2023-03-05T14:32:04.161Z,4.26
2023-03-05T14:34:38.169Z,4.23
2023-03-05T14:37:16.727Z,4.35
2023-03-05T14:39:56.603Z,4.17
2023-03-05T14:42:27.867Z,4.03
2023-03-05T14:44:55.940Z,4.11
2023-03-05T14:47:27.076Z,4.06
2023-03-05T14:49:54.116Z,4.11
2023-03-05T14:52:23.991Z,4.07
2023-03-05T14:54:51.980Z,4.06
2023-03-05T14:57:25.215Z,3.88
2023-03-05T14:59:52.109Z,3.93
2023-03-05T15:02:22.495Z,3.76
2023-03-05T15:04:49.500Z,3.74
2023-03-05T15:07:31.374Z,3.68
2023-03-05T15:09:58.430Z,3.52
2023-03-05T15:12:25.893Z,3.74
2023-03-05T15:14:54.564Z,3.80
2023-03-05T15:17:39.570Z,3.82
2023-03-05T15:20:09.983Z,3.58
2023-03-05T15:22:37.528Z,3.63
2023-03-05T15:25:04.883Z,3.78
2023-03-05T15:27:31.967Z,3.93
2023-03-05T15:29:59.694Z,3.89
2023-03-05T15:32:30.981Z,3.71
2023-03-05T15:34:59.004Z,3.65
2023-03-05T15:37:26.164Z,3.42
2023-03-05T15:39:53.503Z,3.54
2023-03-05T15:42:20.351Z,3.56
2023-03-05T15:44:47.150Z,3.50
2023-03-05T15:47:14.132Z,3.41
2023-03-05T15:49:41.007Z,3.34
2023-03-05T15:52:07.852Z,3.27
2023-03-05T15:54:36.497Z,3.18
2023-03-05T15:57:08.118Z,3.09
2023-03-05T15:59:34.856Z,3.09
2023-03-05T16:02:02.244Z,3.11
2023-03-05T16:04:29.786Z,3.24
2023-03-05T16:06:59.246Z,3.24
2023-03-05T16:09:29.302Z,3.00
2023-03-05T16:11:56.822Z,2.93
2023-03-05T16:14:27.943Z,2.79
2023-03-05T16:16:56.389Z,2.89
2023-03-05T16:19:24.416Z,2.93
2023-03-05T16:21:51.266Z,2.85
2023-03-05T16:24:18.027Z,2.76
2023-03-05T16:26:44.862Z,2.84
2023-03-05T16:29:11.935Z,2.84
2023-03-05T16:31:41.524Z,2.80
2023-03-05T16:34:09.236Z,2.80
2023-03-05T16:36:35.978Z,2.86
2023-03-05T16:39:04.786Z,2.92
2023-03-05T16:41:32.347Z,2.87
2023-03-05T16:43:59.544Z,2.87
2023-03-05T16:46:29.255Z,2.76
2023-03-05T16:48:57.814Z,2.71
2023-03-05T16:51:24.998Z,2.62
2023-03-05T16:53:51.818Z,2.72
2023-03-05T16:56:19.399Z,2.79
2023-03-05T16:58:46.539Z,2.77
2023-03-05T17:01:16.265Z,2.63
2023-03-05T17:03:44.079Z,2.54
2023-03-05T17:06:17.515Z,2.47
2023-03-05T17:08:45.037Z,2.39
2023-03-05T17:11:12.670Z,2.29
2023-03-05T17:13:40.073Z,2.30
2023-03-05T17:16:08.400Z,2.28
2023-03-05T17:18:35.596Z,2.27
2023-03-05T17:21:04.224Z,2.12
2023-03-05T17:23:31.350Z,2.06
2023-03-05T17:25:58.279Z,2.06
2023-03-05T17:28:25.916Z,2.05
2023-03-05T17:30:52.698Z,2.02
2023-03-05T17:33:19.465Z,1.92
2023-03-05T17:35:47.321Z,1.95
2023-03-05T17:38:14.749Z,1.94
2023-03-05T17:40:41.864Z,2.01
2023-03-05T17:43:08.770Z,1.99
2023-03-05T17:45:35.751Z,2.01
2023-03-05T17:48:04.200Z,1.88
2023-03-05T17:50:31.261Z,1.88
2023-03-05T17:52:57.965Z,1.80
2023-03-05T17:55:25.737Z,1.84
2023-03-05T17:57:55.037Z,1.80
2023-03-05T18:00:26.694Z,1.79
2023-03-05T18:02:54.233Z,1.74
2023-03-05T18:05:24.337Z,1.65
2023-03-05T18:07:52.253Z,1.61
2023-03-05T18:10:23.922Z,1.57
2023-03-05T18:12:51.405Z,1.64
2023-03-05T18:15:20.247Z,1.64
2023-03-05T18:17:51.049Z,1.64
2023-03-05T18:20:31.633Z,1.64
2023-03-05T18:23:00.271Z,1.70
2023-03-05T18:25:34.473Z,1.65
2023-03-05T18:28:06.382Z,1.46
2023-03-05T18:30:34.931Z,1.46
2023-03-05T18:33:01.757Z,1.52
2023-03-05T18:35:34.914Z,1.60
2023-03-05T18:38:01.779Z,1.56
2023-03-05T18:40:32.547Z,1.57
2023-03-05T18:43:03.472Z,1.52
2023-03-05T18:45:31.142Z,1.45
2023-03-05T18:48:01.135Z,1.43
2023-03-05T18:50:29.116Z,1.32
2023-03-05T18:52:55.939Z,1.22
2023-03-05T18:55:29.103Z,1.27
2023-03-05T18:57:56.449Z,1.35
2023-03-05T19:00:26.866Z,1.33
2023-03-05T19:02:54.810Z,1.29
2023-03-05T19:05:22.197Z,1.40
2023-03-05T19:07:49.987Z,1.46
2023-03-05T19:10:17.795Z,1.42
2023-03-05T19:13:05.986Z,1.42
2023-03-05T19:15:32.699Z,1.42
2023-03-05T19:18:00.205Z,1.40
2023-03-05T19:20:27.633Z,1.30
2023-03-05T19:22:56.159Z,1.26
2023-03-05T19:25:23.107Z,1.29
2023-03-05T19:27:50.043Z,1.32
2023-03-05T19:30:20.170Z,1.28
2023-03-05T19:32:47.280Z,1.29
2023-03-05T19:35:17.739Z,1.24
2023-03-05T19:37:46.068Z,1.18
2023-03-05T19:40:15.818Z,1.18
2023-03-05T19:42:43.128Z,1.04
2023-03-05T19:45:10.419Z,1.16
2023-03-05T19:47:37.164Z,1.18
2023-03-05T19:50:05.384Z,1.16
2023-03-05T19:52:32.132Z,1.09
2023-03-05T19:55:00.064Z,1.10
2023-03-05T19:57:26.806Z,1.02
2023-03-05T19:59:53.788Z,0.96
2023-03-05T20:02:22.000Z,1.03
2023-03-05T20:04:49.863Z,1.06
2023-03-05T20:07:17.149Z,1.14
2023-03-05T20:09:44.059Z,1.11
2023-03-05T20:12:10.937Z,1.01
2023-03-05T20:14:37.845Z,0.96
2023-03-05T20:17:04.622Z,1.01
2023-03-05T20:19:31.354Z,0.99
2023-03-05T20:21:58.102Z,1.05
2023-03-05T20:24:24.851Z,1.08
2023-03-05T20:26:51.517Z,1.05
2023-03-05T20:29:18.854Z,1.10
2023-03-05T20:31:46.770Z,1.11
2023-03-05T20:34:17.017Z,1.06
2023-03-05T20:36:44.261Z,1.13
2023-03-05T20:39:11.184Z,1.15
2023-03-05T20:41:40.146Z,1.23
2023-03-05T20:44:08.205Z,1.14
2023-03-05T20:46:39.535Z,1.06
2023-03-05T20:49:06.329Z,1.06
2023-03-05T20:51:35.996Z,1.00
2023-03-05T20:54:06.307Z,0.94
2023-03-05T20:56:35.017Z,1.04
2023-03-05T20:59:04.786Z,1.00
2023-03-05T21:01:33.105Z,1.04
2023-03-05T21:04:01.012Z,1.03
2023-03-05T21:06:29.132Z,0.89
2023-03-05T21:08:56.221Z,0.89
2023-03-05T21:11:23.074Z,0.80
2023-03-05T21:13:49.798Z,0.88
2023-03-05T21:16:20.330Z,0.91
2023-03-05T21:18:46.990Z,0.77
2023-03-05T21:21:13.879Z,0.81
2023-03-05T21:23:40.621Z,0.87
2023-03-05T21:26:07.385Z,0.71
2023-03-05T21:28:34.492Z,0.79
2023-03-05T21:31:08.061Z,0.79
2023-03-05T21:33:35.307Z,0.86
2023-03-05T21:36:02.080Z,0.86
2023-03-05T21:38:30.819Z,0.85
2023-03-05T21:40:58.953Z,0.83
2023-03-05T21:43:27.074Z,0.75
2023-03-05T21:45:54.908Z,0.67
2023-03-05T21:48:22.641Z,0.66
2023-03-05T21:50:50.362Z,0.63
2023-03-05T21:53:18.478Z,0.59
2023-03-05T21:56:14.437Z,0.58
2023-03-05T21:58:41.469Z,0.60
2023-03-05T22:01:11.070Z,0.57
2023-03-05T22:03:38.052Z,0.59
2023-03-05T22:06:09.475Z,0.57
2023-03-05T22:08:36.369Z,0.58
2023-03-05T22:11:08.629Z,0.43
2023-03-05T22:13:36.783Z,0.42
2023-03-05T22:16:03.664Z,0.43
2023-03-05T22:18:32.389Z,0.49
2023-03-05T22:20:59.836Z,0.55
2023-03-05T22:23:29.951Z,0.60
2023-03-05T22:25:57.921Z,0.54
2023-03-05T22:28:24.877Z,0.59
2023-03-05T22:30:51.708Z,0.50
2023-03-05T22:33:18.536Z,0.51
2023-03-05T22:35:45.379Z,0.57
2023-03-05T22:38:12.878Z,0.64
2023-03-05T22:40:45.502Z,0.64
2023-03-05T22:43:12.992Z,0.56
2023-03-05T22:45:40.420Z,0.53
2023-03-05T22:48:07.701Z,0.43
2023-03-05T22:50:34.440Z,0.33
2023-03-05T22:53:01.288Z,0.32
2023-03-05T22:55:28.027Z,0.43
2023-03-05T22:57:54.738Z,0.49
2023-03-05T23:00:23.718Z,0.35
2023-03-05T23:02:51.598Z,0.23
2023-03-05T23:05:19.207Z,0.25
2023-03-05T23:07:46.679Z,0.32
2023-03-05T23:10:27.011Z,0.37
2023-03-05T23:12:55.935Z,0.36
2023-03-05T23:15:27.658Z,0.36
2023-03-05T23:17:54.555Z,0.27
2023-03-05T23:20:26.095Z,0.35
2023-03-05T23:22:55.898Z,0.34
2023-03-05T23:25:29.079Z,0.21
2023-03-05T23:27:58.025Z,0.17
2023-03-05T23:30:26.835Z,0.26
2023-03-05T23:33:08.475Z,0.29
2023-03-05T23:35:38.017Z,0.22
2023-03-05T23:38:08.844Z,0.20
2023-03-05T23:40:39.965Z,0.34
2023-03-05T23:43:07.034Z,0.36
2023-03-05T23:45:34.169Z,0.23
2023-03-05T23:48:01.008Z,0.20
2023-03-05T23:50:33.955Z,0.20
2023-03-05T23:53:02.304Z,0.21
2023-03-05T23:55:35.443Z,0.24
2023-03-05T23:58:02.792Z,0.24
